Date,TemperatureHighF,TemperatureAvgF,TemperatureLowF,DewpointHighF,DewpointAvgF,DewpointLowF,HumidityHigh,HumidityAvg,HumidityLow,PressureMaxIn,PressureMinIn,WindSpeedMaxMPH,WindSpeedAvgMPH,GustSpeedMaxMPH,PrecipitationSumIn
2013-10-1,52,49,46,41,40,39,76,71,65,29.96,29.87,0,-999,0,0.00
2013-10-2,76,58,39,51,42,35,88,61,33,30.08,29.84,0,-999,0,0.00
2013-10-3,68,61,55,64,58,43,100,89,49,29.90,29.75,0,-999,0,0.00
2013-10-4,67,61,58,65,61,58,100,99,94,29.93,29.81,0,-999,0,0.00
2013-10-5,73,62,49,70,61,45,100,94,75,29.78,29.66,0,-999,0,0.00
2013-10-6,60,49,39,47,43,39,100,82,50,29.72,29.63,0,-999,0,0.00
2013-10-7,64,52,42,49,44,38,99,77,44,29.99,29.72,0,-999,0,0.00
2013-10-8,75,56,40,52,44,38,96,68,36,30.05,29.90,0,-999,0,0.00
2013-10-9,72,59,48,49,44,42,81,60,44,30.08,29.99,0,-999,0,0.00
2013-10-10,71,56,42,52,45,39,89,70,45,30.08,29.93,0,-999,0,0.00
2013-10-11,75,62,47,57,50,43,91,66,43,29.93,29.72,0,-999,0,0.00
2013-10-12,68,58,40,54,42,32,74,55,37,30.17,29.72,0,-999,0,0.00
2013-10-13,60,44,37,41,34,30,87,70,36,30.38,30.17,0,-999,0,0.00
2013-10-14,62,48,32,43,36,27,84,64,40,30.41,30.02,0,-999,0,0.00
2013-10-15,63,53,49,54,46,41,90,77,60,30.02,29.66,0,-999,0,0.00
2013-10-16,55,49,36,48,43,33,89,79,64,29.90,29.72,0,-999,0,0.00
2013-10-17,59,44,31,44,36,29,93,74,44,29.90,29.72,0,-999,0,0.00
2013-10-18,54,46,33,43,35,27,87,68,40,29.90,29.75,0,-999,0,0.00
2013-10-19,52,39,32,40,32,26,86,76,57,29.84,29.66,0,-999,0,0.00
2013-10-20,51,45,37,43,38,30,87,76,65,29.78,29.59,0,-999,0,0.00
2013-10-21,40,37,28,34,25,18,84,62,42,29.93,29.75,0,-999,0,0.00
2013-10-22,47,34,22,30,24,17,83,68,49,29.99,29.90,0,-999,0,0.00
2013-10-23,46,36,26,31,24,21,83,64,39,30.02,29.93,0,-999,0,0.00
2013-10-24,46,37,29,24,22,19,70,53,39,30.26,30.02,0,-999,0,0.00
2013-10-25,54,47,28,32,29,22,79,51,38,30.29,29.75,0,-999,0,0.00
2013-10-26,53,46,38,34,28,24,70,50,39,30.02,29.72,0,-999,0,0.00
2013-10-27,58,41,27,34,27,20,80,60,37,30.02,29.75,0,-999,0,0.00
2013-10-28,47,41,34,28,25,21,67,53,44,30.38,30.02,0,-999,0,0.00
2013-10-29,53,41,34,34,28,21,72,58,49,30.38,30.08,0,-999,0,0.00
2013-10-30,54,48,43,51,41,34,90,76,70,30.08,29.66,0,-999,0,0.00
2013-10-31,54,49,43,53,46,36,100,90,77,29.66,29.29,0,-999,0,0.00